sensor_id;sensor_type;location;lat;lon;timestamp;P1;durP1;ratioP1;P2;durP2;ratioP2
52300;SDS011;38528;53.214;6.562;2022-09-09T00:07:37;13.60;;;9.23;;
52300;SDS011;38528;53.214;6.562;2022-09-09T00:16:09;14.30;;;8.52;;
52300;SDS011;38528;53.214;6.562;2022-09-09T00:21:17;10.85;;;8.77;;
52300;SDS011;38528;53.214;6.562;2022-09-09T00:23:44;16.23;;;9.55;;
52300;SDS011;38528;53.214;6.562;2022-09-09T00:29:13;13.02;;;9.20;;
52300;SDS011;38528;53.214;6.562;2022-09-09T00:31:45;12.90;;;9.15;;
52300;SDS011;38528;53.214;6.562;2022-09-09T00:34:13;15.15;;;9.48;;
52300;SDS011;38528;53.214;6.562;2022-09-09T00:36:44;13.88;;;9.60;;
52300;SDS011;38528;53.214;6.562;2022-09-09T00:39:21;13.40;;;9.18;;
52300;SDS011;38528;53.214;6.562;2022-09-09T00:44:32;12.05;;;9.63;;
52300;SDS011;38528;53.214;6.562;2022-09-09T00:55:22;12.85;;;7.72;;
52300;SDS011;38528;53.214;6.562;2022-09-09T00:58:07;10.98;;;7.60;;
52300;SDS011;38528;53.214;6.562;2022-09-09T01:00:35;11.63;;;7.88;;
52300;SDS011;38528;53.214;6.562;2022-09-09T01:11:20;9.88;;;6.53;;
52300;SDS011;38528;53.214;6.562;2022-09-09T01:13:46;12.02;;;6.78;;
52300;SDS011;38528;53.214;6.562;2022-09-09T01:16:14;11.20;;;7.10;;
52300;SDS011;38528;53.214;6.562;2022-09-09T01:18:46;11.68;;;7.15;;
52300;SDS011;38528;53.214;6.562;2022-09-09T01:26:43;9.95;;;7.40;;
52300;SDS011;38528;53.214;6.562;2022-09-09T01:29:12;10.20;;;7.15;;
52300;SDS011;38528;53.214;6.562;2022-09-09T01:31:42;11.10;;;7.45;;
52300;SDS011;38528;53.214;6.562;2022-09-09T01:34:25;11.82;;;7.38;;
52300;SDS011;38528;53.214;6.562;2022-09-09T01:36:59;10.90;;;6.95;;
52300;SDS011;38528;53.214;6.562;2022-09-09T01:39:37;9.60;;;6.72;;
52300;SDS011;38528;53.214;6.562;2022-09-09T01:42:06;11.75;;;6.70;;
52300;SDS011;38528;53.214;6.562;2022-09-09T01:44:34;11.30;;;7.03;;
52300;SDS011;38528;53.214;6.562;2022-09-09T01:47:01;11.13;;;7.00;;
52300;SDS011;38528;53.214;6.562;2022-09-09T01:49:27;8.55;;;7.05;;
52300;SDS011;38528;53.214;6.562;2022-09-09T01:51:53;14.63;;;7.40;;
52300;SDS011;38528;53.214;6.562;2022-09-09T01:54:21;10.75;;;7.05;;
52300;SDS011;38528;53.214;6.562;2022-09-09T02:05:45;12.02;;;7.78;;
52300;SDS011;38528;53.214;6.562;2022-09-09T02:07:52;12.68;;;7.78;;
52300;SDS011;38528;53.214;6.562;2022-09-09T02:13:29;12.02;;;8.18;;
52300;SDS011;38528;53.214;6.562;2022-09-09T02:18:24;14.88;;;8.88;;
52300;SDS011;38528;53.214;6.562;2022-09-09T02:20:55;14.10;;;9.52;;
52300;SDS011;38528;53.214;6.562;2022-09-09T02:23:23;12.57;;;9.50;;
52300;SDS011;38528;53.214;6.562;2022-09-09T02:25:49;13.60;;;9.68;;
52300;SDS011;38528;53.214;6.562;2022-09-09T02:28:18;12.52;;;9.30;;
52300;SDS011;38528;53.214;6.562;2022-09-09T02:30:46;14.88;;;10.00;;
52300;SDS011;38528;53.214;6.562;2022-09-09T02:33:20;13.32;;;10.50;;
52300;SDS011;38528;53.214;6.562;2022-09-09T02:35:49;18.42;;;10.05;;
52300;SDS011;38528;53.214;6.562;2022-09-09T02:38:17;15.32;;;10.13;;
52300;SDS011;38528;53.214;6.562;2022-09-09T02:40:46;14.30;;;9.75;;
52300;SDS011;38528;53.214;6.562;2022-09-09T02:43:14;12.65;;;9.70;;
52300;SDS011;38528;53.214;6.562;2022-09-09T02:45:48;13.73;;;9.80;;
52300;SDS011;38528;53.214;6.562;2022-09-09T02:54:28;11.80;;;9.00;;
52300;SDS011;38528;53.214;6.562;2022-09-09T02:56:55;12.93;;;9.90;;
52300;SDS011;38528;53.214;6.562;2022-09-09T02:59:26;13.23;;;9.43;;
52300;SDS011;38528;53.214;6.562;2022-09-09T03:01:52;14.05;;;9.45;;
52300;SDS011;38528;53.214;6.562;2022-09-09T03:04:18;14.85;;;9.32;;
52300;SDS011;38528;53.214;6.562;2022-09-09T03:06:44;16.45;;;8.98;;
52300;SDS011;38528;53.214;6.562;2022-09-09T03:09:09;13.50;;;8.90;;
52300;SDS011;38528;53.214;6.562;2022-09-09T03:11:36;12.82;;;9.50;;
52300;SDS011;38528;53.214;6.562;2022-09-09T03:14:02;14.07;;;9.43;;
52300;SDS011;38528;53.214;6.562;2022-09-09T03:16:27;11.10;;;8.38;;
52300;SDS011;38528;53.214;6.562;2022-09-09T03:18:53;14.18;;;8.82;;
52300;SDS011;38528;53.214;6.562;2022-09-09T03:21:18;13.40;;;8.80;;
52300;SDS011;38528;53.214;6.562;2022-09-09T03:23:44;14.80;;;9.05;;
52300;SDS011;38528;53.214;6.562;2022-09-09T03:26:10;13.55;;;8.90;;
52300;SDS011;38528;53.214;6.562;2022-09-09T03:28:35;12.35;;;8.20;;
52300;SDS011;38528;53.214;6.562;2022-09-09T03:31:01;13.82;;;8.15;;
52300;SDS011;38528;53.214;6.562;2022-09-09T03:33:28;12.48;;;8.18;;
52300;SDS011;38528;53.214;6.562;2022-09-09T03:35:55;10.38;;;7.40;;
52300;SDS011;38528;53.214;6.562;2022-09-09T03:38:24;14.32;;;7.88;;
52300;SDS011;38528;53.214;6.562;2022-09-09T03:40:50;10.80;;;8.23;;
52300;SDS011;38528;53.214;6.562;2022-09-09T03:43:20;14.25;;;7.15;;
52300;SDS011;38528;53.214;6.562;2022-09-09T03:45:49;12.18;;;7.93;;
52300;SDS011;38528;53.214;6.562;2022-09-09T03:48:16;12.43;;;6.82;;
52300;SDS011;38528;53.214;6.562;2022-09-09T03:50:49;10.88;;;6.22;;
52300;SDS011;38528;53.214;6.562;2022-09-09T03:53:17;9.45;;;5.75;;
52300;SDS011;38528;53.214;6.562;2022-09-09T03:55:48;11.13;;;5.90;;
52300;SDS011;38528;53.214;6.562;2022-09-09T03:58:15;6.95;;;5.30;;
52300;SDS011;38528;53.214;6.562;2022-09-09T04:00:44;9.85;;;5.18;;
52300;SDS011;38528;53.214;6.562;2022-09-09T04:03:18;8.38;;;4.88;;
52300;SDS011;38528;53.214;6.562;2022-09-09T04:05:44;8.70;;;4.70;;
52300;SDS011;38528;53.214;6.562;2022-09-09T04:08:10;7.88;;;4.47;;
52300;SDS011;38528;53.214;6.562;2022-09-09T04:10:36;7.90;;;3.95;;
52300;SDS011;38528;53.214;6.562;2022-09-09T04:13:03;8.48;;;4.20;;
52300;SDS011;38528;53.214;6.562;2022-09-09T04:15:29;9.57;;;4.43;;
52300;SDS011;38528;53.214;6.562;2022-09-09T04:17:56;7.93;;;3.60;;
52300;SDS011;38528;53.214;6.562;2022-09-09T04:20:21;7.90;;;4.10;;
52300;SDS011;38528;53.214;6.562;2022-09-09T04:22:48;8.93;;;3.75;;
52300;SDS011;38528;53.214;6.562;2022-09-09T04:25:14;9.38;;;3.72;;
52300;SDS011;38528;53.214;6.562;2022-09-09T04:27:40;7.43;;;3.70;;
52300;SDS011;38528;53.214;6.562;2022-09-09T04:30:06;8.85;;;3.75;;
52300;SDS011;38528;53.214;6.562;2022-09-09T04:32:35;7.75;;;3.50;;
52300;SDS011;38528;53.214;6.562;2022-09-09T04:35:01;9.48;;;3.83;;
52300;SDS011;38528;53.214;6.562;2022-09-09T04:37:28;7.70;;;3.63;;
52300;SDS011;38528;53.214;6.562;2022-09-09T04:39:53;6.78;;;3.40;;
52300;SDS011;38528;53.214;6.562;2022-09-09T04:42:19;8.07;;;3.90;;
52300;SDS011;38528;53.214;6.562;2022-09-09T04:44:45;6.50;;;3.78;;
52300;SDS011;38528;53.214;6.562;2022-09-09T04:47:10;9.02;;;4.30;;
52300;SDS011;38528;53.214;6.562;2022-09-09T04:49:36;6.85;;;4.07;;
52300;SDS011;38528;53.214;6.562;2022-09-09T04:52:03;8.88;;;4.75;;
52300;SDS011;38528;53.214;6.562;2022-09-09T04:54:29;8.45;;;4.63;;
52300;SDS011;38528;53.214;6.562;2022-09-09T04:56:55;9.32;;;4.88;;
52300;SDS011;38528;53.214;6.562;2022-09-09T04:59:21;9.32;;;4.90;;
52300;SDS011;38528;53.214;6.562;2022-09-09T05:01:47;8.00;;;4.80;;
52300;SDS011;38528;53.214;6.562;2022-09-09T05:04:14;8.55;;;4.80;;
52300;SDS011;38528;53.214;6.562;2022-09-09T05:06:41;8.55;;;5.28;;
52300;SDS011;38528;53.214;6.562;2022-09-09T05:09:07;11.90;;;6.35;;
52300;SDS011;38528;53.214;6.562;2022-09-09T05:11:33;10.90;;;5.57;;
52300;SDS011;38528;53.214;6.562;2022-09-09T05:14:01;10.13;;;5.90;;
52300;SDS011;38528;53.214;6.562;2022-09-09T05:16:28;10.35;;;6.00;;
52300;SDS011;38528;53.214;6.562;2022-09-09T05:18:54;9.35;;;5.75;;
52300;SDS011;38528;53.214;6.562;2022-09-09T05:21:21;9.50;;;6.70;;
52300;SDS011;38528;53.214;6.562;2022-09-09T05:23:48;8.88;;;6.22;;
52300;SDS011;38528;53.214;6.562;2022-09-09T05:26:16;11.50;;;7.05;;
52300;SDS011;38528;53.214;6.562;2022-09-09T05:28:43;9.98;;;6.70;;
52300;SDS011;38528;53.214;6.562;2022-09-09T05:31:10;9.95;;;7.03;;
52300;SDS011;38528;53.214;6.562;2022-09-09T05:33:37;11.57;;;7.63;;
52300;SDS011;38528;53.214;6.562;2022-09-09T05:36:08;11.43;;;7.05;;
52300;SDS011;38528;53.214;6.562;2022-09-09T05:38:38;11.88;;;7.28;;
52300;SDS011;38528;53.214;6.562;2022-09-09T05:41:05;12.68;;;7.85;;
52300;SDS011;38528;53.214;6.562;2022-09-09T05:43:32;13.70;;;7.85;;
52300;SDS011;38528;53.214;6.562;2022-09-09T05:48:30;13.25;;;8.80;;
52300;SDS011;38528;53.214;6.562;2022-09-09T05:50:57;11.00;;;8.02;;
52300;SDS011;38528;53.214;6.562;2022-09-09T05:53:24;12.05;;;8.85;;
52300;SDS011;38528;53.214;6.562;2022-09-09T05:55:50;12.88;;;8.50;;
52300;SDS011;38528;53.214;6.562;2022-09-09T05:58:22;12.77;;;8.95;;
52300;SDS011;38528;53.214;6.562;2022-09-09T06:00:49;13.15;;;9.40;;
52300;SDS011;38528;53.214;6.562;2022-09-09T06:03:15;13.13;;;9.43;;
52300;SDS011;38528;53.214;6.562;2022-09-09T06:05:42;13.43;;;8.88;;
52300;SDS011;38528;53.214;6.562;2022-09-09T06:08:07;14.27;;;9.07;;
52300;SDS011;38528;53.214;6.562;2022-09-09T06:10:33;10.90;;;8.98;;
52300;SDS011;38528;53.214;6.562;2022-09-09T06:12:59;13.15;;;8.90;;
52300;SDS011;38528;53.214;6.562;2022-09-09T06:15:25;11.32;;;8.70;;
52300;SDS011;38528;53.214;6.562;2022-09-09T06:17:54;12.02;;;8.95;;
52300;SDS011;38528;53.214;6.562;2022-09-09T06:20:20;14.48;;;9.38;;
52300;SDS011;38528;53.214;6.562;2022-09-09T06:22:47;14.82;;;8.68;;
52300;SDS011;38528;53.214;6.562;2022-09-09T06:25:13;14.43;;;9.18;;
52300;SDS011;38528;53.214;6.562;2022-09-09T06:27:39;15.23;;;9.15;;
52300;SDS011;38528;53.214;6.562;2022-09-09T06:30:05;10.85;;;8.35;;
52300;SDS011;38528;53.214;6.562;2022-09-09T06:32:32;12.65;;;8.55;;
52300;SDS011;38528;53.214;6.562;2022-09-09T06:34:59;11.00;;;8.88;;
52300;SDS011;38528;53.214;6.562;2022-09-09T06:37:26;11.77;;;8.25;;
52300;SDS011;38528;53.214;6.562;2022-09-09T06:39:52;13.90;;;8.07;;
52300;SDS011;38528;53.214;6.562;2022-09-09T06:42:19;11.75;;;8.30;;
52300;SDS011;38528;53.214;6.562;2022-09-09T06:44:45;11.48;;;8.50;;
52300;SDS011;38528;53.214;6.562;2022-09-09T06:47:10;14.82;;;10.73;;
52300;SDS011;38528;53.214;6.562;2022-09-09T06:49:36;12.48;;;8.88;;
52300;SDS011;38528;53.214;6.562;2022-09-09T06:52:02;12.32;;;8.25;;
52300;SDS011;38528;53.214;6.562;2022-09-09T06:54:27;11.32;;;7.97;;
52300;SDS011;38528;53.214;6.562;2022-09-09T06:56:53;11.77;;;8.00;;
52300;SDS011;38528;53.214;6.562;2022-09-09T06:59:19;11.57;;;7.93;;
52300;SDS011;38528;53.214;6.562;2022-09-09T07:01:44;10.60;;;7.18;;
52300;SDS011;38528;53.214;6.562;2022-09-09T07:04:11;10.77;;;7.18;;
52300;SDS011;38528;53.214;6.562;2022-09-09T07:06:39;10.85;;;7.53;;
52300;SDS011;38528;53.214;6.562;2022-09-09T07:09:08;11.85;;;7.15;;
52300;SDS011;38528;53.214;6.562;2022-09-09T07:11:39;12.80;;;7.78;;
52300;SDS011;38528;53.214;6.562;2022-09-09T07:14:09;13.02;;;7.55;;
52300;SDS011;38528;53.214;6.562;2022-09-09T07:16:39;8.50;;;6.68;;
52300;SDS011;38528;53.214;6.562;2022-09-09T07:19:05;8.30;;;7.10;;
52300;SDS011;38528;53.214;6.562;2022-09-09T07:21:32;11.07;;;6.97;;
52300;SDS011;38528;53.214;6.562;2022-09-09T07:23:58;10.93;;;7.35;;
52300;SDS011;38528;53.214;6.562;2022-09-09T07:26:30;12.85;;;7.40;;
52300;SDS011;38528;53.214;6.562;2022-09-09T07:28:56;10.50;;;7.45;;
52300;SDS011;38528;53.214;6.562;2022-09-09T07:31:24;13.13;;;7.20;;
52300;SDS011;38528;53.214;6.562;2022-09-09T07:33:51;11.93;;;7.03;;
52300;SDS011;38528;53.214;6.562;2022-09-09T07:38:50;11.18;;;7.07;;
52300;SDS011;38528;53.214;6.562;2022-09-09T07:41:28;9.50;;;6.70;;
52300;SDS011;38528;53.214;6.562;2022-09-09T07:43:59;13.13;;;6.82;;
52300;SDS011;38528;53.214;6.562;2022-09-09T07:46:29;11.30;;;6.53;;
52300;SDS011;38528;53.214;6.562;2022-09-09T07:48:55;9.05;;;6.80;;
52300;SDS011;38528;53.214;6.562;2022-09-09T07:51:25;8.90;;;6.45;;
52300;SDS011;38528;53.214;6.562;2022-09-09T07:53:57;11.52;;;6.53;;
52300;SDS011;38528;53.214;6.562;2022-09-09T07:56:24;9.63;;;6.45;;
52300;SDS011;38528;53.214;6.562;2022-09-09T07:58:51;12.38;;;6.88;;
52300;SDS011;38528;53.214;6.562;2022-09-09T08:01:19;8.82;;;5.97;;
52300;SDS011;38528;53.214;6.562;2022-09-09T08:03:51;10.88;;;6.75;;
52300;SDS011;38528;53.214;6.562;2022-09-09T08:06:24;9.75;;;5.90;;
52300;SDS011;38528;53.214;6.562;2022-09-09T08:08:52;8.95;;;5.70;;
52300;SDS011;38528;53.214;6.562;2022-09-09T08:11:22;9.68;;;5.80;;
52300;SDS011;38528;53.214;6.562;2022-09-09T08:13:50;8.30;;;5.55;;
52300;SDS011;38528;53.214;6.562;2022-09-09T08:16:23;8.52;;;5.55;;
52300;SDS011;38528;53.214;6.562;2022-09-09T08:18:52;9.95;;;5.72;;
52300;SDS011;38528;53.214;6.562;2022-09-09T08:21:23;8.82;;;5.60;;
52300;SDS011;38528;53.214;6.562;2022-09-09T08:23:50;10.10;;;6.22;;
52300;SDS011;38528;53.214;6.562;2022-09-09T08:26:19;10.18;;;5.80;;
52300;SDS011;38528;53.214;6.562;2022-09-09T08:28:56;9.55;;;5.63;;
52300;SDS011;38528;53.214;6.562;2022-09-09T08:31:24;8.07;;;5.47;;
52300;SDS011;38528;53.214;6.562;2022-09-09T08:33:53;8.63;;;5.50;;
52300;SDS011;38528;53.214;6.562;2022-09-09T08:36:21;8.90;;;4.97;;
52300;SDS011;38528;53.214;6.562;2022-09-09T08:38:49;8.70;;;5.10;;
52300;SDS011;38528;53.214;6.562;2022-09-09T08:57:51;7.78;;;4.50;;
52300;SDS011;38528;53.214;6.562;2022-09-09T09:00:19;7.68;;;4.78;;
52300;SDS011;38528;53.214;6.562;2022-09-09T09:03:05;7.63;;;4.22;;
52300;SDS011;38528;53.214;6.562;2022-09-09T09:11:16;8.60;;;4.15;;
52300;SDS011;38528;53.214;6.562;2022-09-09T09:13:44;12.73;;;4.47;;
52300;SDS011;38528;53.214;6.562;2022-09-09T09:16:25;8.95;;;4.35;;
52300;SDS011;38528;53.214;6.562;2022-09-09T09:18:57;11.25;;;4.25;;
52300;SDS011;38528;53.214;6.562;2022-09-09T09:24:52;9.40;;;4.15;;
52300;SDS011;38528;53.214;6.562;2022-09-09T09:26:59;8.77;;;4.10;;
52300;SDS011;38528;53.214;6.562;2022-09-09T09:29:36;9.05;;;4.03;;
52300;SDS011;38528;53.214;6.562;2022-09-09T09:32:04;9.15;;;4.20;;
52300;SDS011;38528;53.214;6.562;2022-09-09T09:34:32;11.73;;;4.82;;
52300;SDS011;38528;53.214;6.562;2022-09-09T09:36:58;10.20;;;4.25;;
52300;SDS011;38528;53.214;6.562;2022-09-09T09:39:32;8.88;;;3.95;;
52300;SDS011;38528;53.214;6.562;2022-09-09T09:42:15;13.13;;;3.80;;
52300;SDS011;38528;53.214;6.562;2022-09-09T09:44:42;6.93;;;3.95;;
52300;SDS011;38528;53.214;6.562;2022-09-09T09:47:12;9.43;;;4.32;;
52300;SDS011;38528;53.214;6.562;2022-09-09T09:49:38;8.23;;;4.38;;
52300;SDS011;38528;53.214;6.562;2022-09-09T09:52:05;9.50;;;4.07;;
52300;SDS011;38528;53.214;6.562;2022-09-09T09:54:33;9.48;;;4.00;;
52300;SDS011;38528;53.214;6.562;2022-09-09T09:57:13;10.65;;;3.47;;
52300;SDS011;38528;53.214;6.562;2022-09-09T09:59:40;11.25;;;3.80;;
52300;SDS011;38528;53.214;6.562;2022-09-09T10:02:22;9.95;;;3.85;;
52300;SDS011;38528;53.214;6.562;2022-09-09T10:05:00;13.63;;;3.65;;
52300;SDS011;38528;53.214;6.562;2022-09-09T10:07:26;10.55;;;3.80;;
52300;SDS011;38528;53.214;6.562;2022-09-09T10:09:55;9.77;;;3.65;;
52300;SDS011;38528;53.214;6.562;2022-09-09T10:15:02;10.25;;;3.10;;
52300;SDS011;38528;53.214;6.562;2022-09-09T10:25:48;10.05;;;3.08;;
52300;SDS011;38528;53.214;6.562;2022-09-09T10:28:39;10.63;;;3.00;;
52300;SDS011;38528;53.214;6.562;2022-09-09T10:31:36;9.77;;;2.63;;
52300;SDS011;38528;53.214;6.562;2022-09-09T10:37:02;12.13;;;2.97;;
52300;SDS011;38528;53.214;6.562;2022-09-09T10:39:43;8.30;;;2.70;;
52300;SDS011;38528;53.214;6.562;2022-09-09T10:42:09;10.00;;;2.95;;
52300;SDS011;38528;53.214;6.562;2022-09-09T10:50:12;9.10;;;2.28;;
52300;SDS011;38528;53.214;6.562;2022-09-09T10:53:02;7.65;;;2.13;;
52300;SDS011;38528;53.214;6.562;2022-09-09T10:55:44;6.63;;;2.30;;
52300;SDS011;38528;53.214;6.562;2022-09-09T10:58:15;13.93;;;2.72;;
52300;SDS011;38528;53.214;6.562;2022-09-09T11:00:49;8.95;;;2.38;;
52300;SDS011;38528;53.214;6.562;2022-09-09T11:03:20;8.40;;;2.13;;
52300;SDS011;38528;53.214;6.562;2022-09-09T11:05:50;9.15;;;2.50;;
52300;SDS011;38528;53.214;6.562;2022-09-09T11:08:23;7.55;;;2.15;;
52300;SDS011;38528;53.214;6.562;2022-09-09T11:10:53;7.78;;;2.05;;
52300;SDS011;38528;53.214;6.562;2022-09-09T11:21:59;8.63;;;1.90;;
52300;SDS011;38528;53.214;6.562;2022-09-09T11:24:33;6.63;;;1.98;;
52300;SDS011;38528;53.214;6.562;2022-09-09T11:27:14;6.20;;;1.73;;
52300;SDS011;38528;53.214;6.562;2022-09-09T11:32:23;8.73;;;2.10;;
52300;SDS011;38528;53.214;6.562;2022-09-09T11:41:01;9.47;;;1.70;;
52300;SDS011;38528;53.214;6.562;2022-09-09T11:43:47;8.15;;;2.20;;
52300;SDS011;38528;53.214;6.562;2022-09-09T11:46:18;8.00;;;1.83;;
52300;SDS011;38528;53.214;6.562;2022-09-09T11:49:21;5.72;;;1.92;;
52300;SDS011;38528;53.214;6.562;2022-09-09T11:51:50;7.53;;;2.00;;
52300;SDS011;38528;53.214;6.562;2022-09-09T11:56:57;8.90;;;1.95;;
52300;SDS011;38528;53.214;6.562;2022-09-09T11:59:27;7.03;;;2.00;;
52300;SDS011;38528;53.214;6.562;2022-09-09T12:01:57;6.43;;;1.90;;
52300;SDS011;38528;53.214;6.562;2022-09-09T12:04:28;6.85;;;2.10;;
52300;SDS011;38528;53.214;6.562;2022-09-09T12:06:59;7.20;;;1.90;;
52300;SDS011;38528;53.214;6.562;2022-09-09T12:09:50;6.28;;;2.20;;
52300;SDS011;38528;53.214;6.562;2022-09-09T12:12:26;5.93;;;1.77;;
52300;SDS011;38528;53.214;6.562;2022-09-09T12:14:58;7.63;;;2.08;;
52300;SDS011;38528;53.214;6.562;2022-09-09T12:17:28;6.65;;;1.67;;
52300;SDS011;38528;53.214;6.562;2022-09-09T12:20:00;5.53;;;1.70;;
52300;SDS011;38528;53.214;6.562;2022-09-09T12:25:28;7.15;;;1.90;;
52300;SDS011;38528;53.214;6.562;2022-09-09T12:28:15;9.40;;;2.20;;
52300;SDS011;38528;53.214;6.562;2022-09-09T12:31:03;4.22;;;1.65;;
52300;SDS011;38528;53.214;6.562;2022-09-09T12:33:37;6.65;;;1.80;;
52300;SDS011;38528;53.214;6.562;2022-09-09T12:36:09;6.55;;;1.90;;
52300;SDS011;38528;53.214;6.562;2022-09-09T12:38:39;7.90;;;1.70;;
52300;SDS011;38528;53.214;6.562;2022-09-09T12:41:24;5.72;;;1.80;;
52300;SDS011;38528;53.214;6.562;2022-09-09T12:44:02;9.10;;;2.10;;
52300;SDS011;38528;53.214;6.562;2022-09-09T12:46:35;5.18;;;1.70;;
52300;SDS011;38528;53.214;6.562;2022-09-09T12:49:04;6.55;;;1.90;;
52300;SDS011;38528;53.214;6.562;2022-09-09T12:51:31;7.75;;;2.10;;
52300;SDS011;38528;53.214;6.562;2022-09-09T12:53:58;7.68;;;2.03;;
52300;SDS011;38528;53.214;6.562;2022-09-09T12:56:26;8.43;;;2.15;;
52300;SDS011;38528;53.214;6.562;2022-09-09T12:58:55;7.93;;;1.92;;
52300;SDS011;38528;53.214;6.562;2022-09-09T13:01:29;6.75;;;1.90;;
52300;SDS011;38528;53.214;6.562;2022-09-09T13:06:27;8.23;;;2.33;;
52300;SDS011;38528;53.214;6.562;2022-09-09T13:08:54;8.13;;;1.85;;
52300;SDS011;38528;53.214;6.562;2022-09-09T13:11:22;9.00;;;2.15;;
52300;SDS011;38528;53.214;6.562;2022-09-09T13:13:54;6.40;;;1.70;;
52300;SDS011;38528;53.214;6.562;2022-09-09T13:18:46;9.45;;;2.00;;
52300;SDS011;38528;53.214;6.562;2022-09-09T13:21:12;7.20;;;1.98;;
52300;SDS011;38528;53.214;6.562;2022-09-09T13:23:41;5.78;;;2.00;;
52300;SDS011;38528;53.214;6.562;2022-09-09T13:26:26;5.95;;;1.58;;
52300;SDS011;38528;53.214;6.562;2022-09-09T13:28:52;6.95;;;1.80;;
52300;SDS011;38528;53.214;6.562;2022-09-09T13:31:20;7.00;;;2.25;;
52300;SDS011;38528;53.214;6.562;2022-09-09T13:33:53;6.72;;;2.10;;
52300;SDS011;38528;53.214;6.562;2022-09-09T13:36:29;6.88;;;2.00;;
52300;SDS011;38528;53.214;6.562;2022-09-09T13:38:57;7.50;;;2.10;;
52300;SDS011;38528;53.214;6.562;2022-09-09T13:44:22;8.70;;;2.22;;
52300;SDS011;38528;53.214;6.562;2022-09-09T13:47:06;7.55;;;2.00;;
52300;SDS011;38528;53.214;6.562;2022-09-09T13:49:46;7.82;;;1.92;;
52300;SDS011;38528;53.214;6.562;2022-09-09T13:52:12;5.88;;;1.90;;
52300;SDS011;38528;53.214;6.562;2022-09-09T13:54:40;6.57;;;1.80;;
52300;SDS011;38528;53.214;6.562;2022-09-09T13:57:16;8.07;;;1.90;;
52300;SDS011;38528;53.214;6.562;2022-09-09T13:59:44;7.75;;;2.00;;
52300;SDS011;38528;53.214;6.562;2022-09-09T14:02:10;5.50;;;1.50;;
52300;SDS011;38528;53.214;6.562;2022-09-09T14:04:36;5.95;;;1.80;;
52300;SDS011;38528;53.214;6.562;2022-09-09T14:07:03;7.32;;;1.80;;
52300;SDS011;38528;53.214;6.562;2022-09-09T14:09:28;6.07;;;1.52;;
52300;SDS011;38528;53.214;6.562;2022-09-09T14:11:54;5.13;;;1.35;;
52300;SDS011;38528;53.214;6.562;2022-09-09T14:14:20;4.18;;;1.40;;
52300;SDS011;38528;53.214;6.562;2022-09-09T14:16:46;4.72;;;1.63;;
52300;SDS011;38528;53.214;6.562;2022-09-09T14:19:12;5.82;;;1.60;;
52300;SDS011;38528;53.214;6.562;2022-09-09T14:21:40;6.93;;;1.50;;
52300;SDS011;38528;53.214;6.562;2022-09-09T14:24:06;5.68;;;1.63;;
52300;SDS011;38528;53.214;6.562;2022-09-09T14:26:31;10.02;;;1.65;;
52300;SDS011;38528;53.214;6.562;2022-09-09T14:28:57;3.92;;;1.50;;
52300;SDS011;38528;53.214;6.562;2022-09-09T14:31:29;4.93;;;1.30;;
52300;SDS011;38528;53.214;6.562;2022-09-09T14:33:57;5.65;;;1.60;;
52300;SDS011;38528;53.214;6.562;2022-09-09T14:36:26;4.05;;;1.48;;
52300;SDS011;38528;53.214;6.562;2022-09-09T14:38:51;5.53;;;1.40;;
52300;SDS011;38528;53.214;6.562;2022-09-09T14:41:17;3.28;;;1.40;;
52300;SDS011;38528;53.214;6.562;2022-09-09T14:43:45;6.68;;;1.58;;
52300;SDS011;38528;53.214;6.562;2022-09-09T14:46:12;3.28;;;1.27;;
52300;SDS011;38528;53.214;6.562;2022-09-09T14:48:39;3.25;;;1.13;;
52300;SDS011;38528;53.214;6.562;2022-09-09T14:51:06;3.08;;;1.00;;
52300;SDS011;38528;53.214;6.562;2022-09-09T14:53:43;1.70;;;1.10;;
52300;SDS011;38528;53.214;6.562;2022-09-09T14:56:10;2.33;;;0.75;;
52300;SDS011;38528;53.214;6.562;2022-09-09T14:58:38;2.75;;;1.00;;
52300;SDS011;38528;53.214;6.562;2022-09-09T15:01:04;1.83;;;0.82;;
52300;SDS011;38528;53.214;6.562;2022-09-09T15:03:30;3.03;;;0.98;;
52300;SDS011;38528;53.214;6.562;2022-09-09T15:05:56;2.40;;;1.20;;
52300;SDS011;38528;53.214;6.562;2022-09-09T15:08:23;4.25;;;1.30;;
52300;SDS011;38528;53.214;6.562;2022-09-09T15:10:49;3.38;;;1.30;;
52300;SDS011;38528;53.214;6.562;2022-09-09T15:13:15;5.88;;;1.77;;
52300;SDS011;38528;53.214;6.562;2022-09-09T15:15:43;3.55;;;1.23;;
52300;SDS011;38528;53.214;6.562;2022-09-09T15:18:09;3.92;;;1.40;;
52300;SDS011;38528;53.214;6.562;2022-09-09T15:20:35;5.13;;;1.48;;
52300;SDS011;38528;53.214;6.562;2022-09-09T15:23:02;5.28;;;1.90;;
52300;SDS011;38528;53.214;6.562;2022-09-09T15:25:28;4.10;;;1.50;;
52300;SDS011;38528;53.214;6.562;2022-09-09T15:27:54;5.82;;;1.60;;
52300;SDS011;38528;53.214;6.562;2022-09-09T15:30:21;2.72;;;1.48;;
52300;SDS011;38528;53.214;6.562;2022-09-09T15:32:46;5.97;;;1.75;;
52300;SDS011;38528;53.214;6.562;2022-09-09T15:35:12;5.45;;;1.88;;
52300;SDS011;38528;53.214;6.562;2022-09-09T15:37:37;4.93;;;1.50;;
52300;SDS011;38528;53.214;6.562;2022-09-09T15:40:03;6.75;;;2.00;;
52300;SDS011;38528;53.214;6.562;2022-09-09T15:42:29;5.72;;;1.77;;
52300;SDS011;38528;53.214;6.562;2022-09-09T15:44:55;4.18;;;1.60;;
52300;SDS011;38528;53.214;6.562;2022-09-09T15:47:20;5.80;;;1.75;;
52300;SDS011;38528;53.214;6.562;2022-09-09T15:49:46;3.97;;;1.20;;
52300;SDS011;38528;53.214;6.562;2022-09-09T15:52:12;8.45;;;1.48;;
52300;SDS011;38528;53.214;6.562;2022-09-09T15:54:38;5.72;;;1.50;;
52300;SDS011;38528;53.214;6.562;2022-09-09T15:57:05;4.05;;;1.65;;
52300;SDS011;38528;53.214;6.562;2022-09-09T15:59:32;3.10;;;1.40;;
52300;SDS011;38528;53.214;6.562;2022-09-09T16:01:59;3.92;;;1.45;;
52300;SDS011;38528;53.214;6.562;2022-09-09T16:04:25;4.05;;;1.40;;
52300;SDS011;38528;53.214;6.562;2022-09-09T16:06:53;3.67;;;1.52;;
52300;SDS011;38528;53.214;6.562;2022-09-09T16:09:22;4.90;;;1.40;;
52300;SDS011;38528;53.214;6.562;2022-09-09T16:11:48;3.45;;;1.33;;
52300;SDS011;38528;53.214;6.562;2022-09-09T16:14:14;2.78;;;1.30;;
52300;SDS011;38528;53.214;6.562;2022-09-09T16:16:40;3.72;;;1.73;;
52300;SDS011;38528;53.214;6.562;2022-09-09T16:19:07;5.65;;;1.60;;
52300;SDS011;38528;53.214;6.562;2022-09-09T16:21:36;5.63;;;1.45;;
52300;SDS011;38528;53.214;6.562;2022-09-09T16:24:04;2.60;;;1.30;;
52300;SDS011;38528;53.214;6.562;2022-09-09T16:26:31;3.30;;;1.58;;
52300;SDS011;38528;53.214;6.562;2022-09-09T16:29:00;6.63;;;1.40;;
52300;SDS011;38528;53.214;6.562;2022-09-09T16:31:26;3.55;;;1.45;;
52300;SDS011;38528;53.214;6.562;2022-09-09T16:33:53;4.82;;;1.50;;
52300;SDS011;38528;53.214;6.562;2022-09-09T16:36:21;7.07;;;2.00;;
52300;SDS011;38528;53.214;6.562;2022-09-09T16:38:51;4.97;;;2.15;;
52300;SDS011;38528;53.214;6.562;2022-09-09T16:41:22;5.10;;;1.90;;
52300;SDS011;38528;53.214;6.562;2022-09-09T16:43:52;4.75;;;1.90;;
52300;SDS011;38528;53.214;6.562;2022-09-09T16:46:19;6.00;;;2.05;;
52300;SDS011;38528;53.214;6.562;2022-09-09T16:48:46;3.83;;;1.38;;
52300;SDS011;38528;53.214;6.562;2022-09-09T16:51:14;4.18;;;1.60;;
52300;SDS011;38528;53.214;6.562;2022-09-09T16:54:00;4.28;;;1.60;;
52300;SDS011;38528;53.214;6.562;2022-09-09T16:56:29;3.90;;;1.63;;
52300;SDS011;38528;53.214;6.562;2022-09-09T16:58:58;6.53;;;1.65;;
52300;SDS011;38528;53.214;6.562;2022-09-09T17:01:32;4.50;;;1.70;;
52300;SDS011;38528;53.214;6.562;2022-09-09T17:04:03;3.97;;;1.55;;
52300;SDS011;38528;53.214;6.562;2022-09-09T17:06:31;5.32;;;1.73;;
52300;SDS011;38528;53.214;6.562;2022-09-09T17:09:00;4.57;;;1.90;;
52300;SDS011;38528;53.214;6.562;2022-09-09T17:11:28;4.65;;;1.70;;
52300;SDS011;38528;53.214;6.562;2022-09-09T17:13:54;5.80;;;1.92;;
52300;SDS011;38528;53.214;6.562;2022-09-09T17:16:22;5.68;;;2.30;;
52300;SDS011;38528;53.214;6.562;2022-09-09T17:18:50;4.18;;;1.90;;